createdAt,value
2018-07-09T00:00:04.703Z,0
2018-07-09T00:01:06.102Z,0
2018-07-09T00:02:07.491Z,0
2018-07-09T00:03:08.892Z,0
2018-07-09T00:04:10.288Z,0
2018-07-09T00:05:11.684Z,0
2018-07-09T00:06:13.152Z,0
2018-07-09T00:07:14.484Z,0
2018-07-09T00:08:15.882Z,0
2018-07-09T00:09:17.279Z,0
2018-07-09T00:10:18.665Z,0
2018-07-09T00:11:20.060Z,0
2018-07-09T00:12:22.431Z,0
2018-07-09T00:13:23.831Z,0
2018-07-09T00:14:25.226Z,0
2018-07-09T00:15:26.623Z,0
2018-07-09T00:16:28.016Z,0
2018-07-09T00:17:29.419Z,0
2018-07-09T00:18:30.812Z,0
2018-07-09T00:19:32.205Z,0
2018-07-09T00:20:33.601Z,0
2018-07-09T00:21:34.998Z,0
2018-07-09T00:22:36.403Z,0
2018-07-09T00:23:37.792Z,0
2018-07-09T00:24:39.186Z,0
2018-07-09T00:25:40.579Z,0
2018-07-09T00:26:41.975Z,0
2018-07-09T00:27:43.393Z,0
2018-07-09T00:28:44.797Z,0
2018-07-09T00:29:46.195Z,0
2018-07-09T00:30:47.589Z,0
2018-07-09T00:31:48.983Z,0
2018-07-09T00:32:50.374Z,0
2018-07-09T00:33:51.769Z,0
2018-07-09T00:34:53.169Z,0
2018-07-09T00:35:54.561Z,0
2018-07-09T00:36:55.960Z,0
2018-07-09T00:37:57.354Z,0
2018-07-09T00:38:58.749Z,0
2018-07-09T00:40:00.150Z,0
2018-07-09T00:41:01.545Z,0
2018-07-09T00:42:02.938Z,0
2018-07-09T00:43:04.338Z,0
2018-07-09T00:44:05.737Z,0
2018-07-09T00:45:07.135Z,0
2018-07-09T00:46:08.535Z,0
2018-07-09T00:47:09.926Z,0
2018-07-09T00:48:11.322Z,0
2018-07-09T00:49:12.718Z,0
2018-07-09T00:50:14.113Z,0
2018-07-09T00:51:15.504Z,0
2018-07-09T00:52:16.900Z,0
2018-07-09T00:53:18.291Z,0
2018-07-09T00:54:19.680Z,0
2018-07-09T00:55:21.077Z,0
2018-07-09T00:56:22.469Z,0
2018-07-09T00:57:23.860Z,0
2018-07-09T00:58:25.268Z,0
2018-07-09T00:59:28.065Z,0
2018-07-09T01:00:29.474Z,0
2018-07-09T01:01:30.875Z,0
2018-07-09T01:02:32.271Z,0
2018-07-09T01:03:33.670Z,0
2018-07-09T01:04:35.065Z,0
2018-07-09T01:05:36.466Z,0
2018-07-09T01:06:37.864Z,0
2018-07-09T01:07:39.256Z,0
2018-07-09T01:08:40.684Z,0
2018-07-09T01:09:42.148Z,0
2018-07-09T01:10:43.542Z,0
2018-07-09T01:11:44.935Z,0
2018-07-09T01:12:46.333Z,0
2018-07-09T01:13:47.731Z,0
2018-07-09T01:14:49.131Z,0
2018-07-09T01:15:50.529Z,0
2018-07-09T01:16:51.927Z,0
2018-07-09T01:17:53.321Z,0
2018-07-09T01:18:54.712Z,0
2018-07-09T01:19:56.106Z,0
2018-07-09T01:20:57.515Z,0
2018-07-09T01:21:58.908Z,0
2018-07-09T01:23:00.300Z,0
2018-07-09T01:24:01.691Z,0
2018-07-09T01:25:03.094Z,0
2018-07-09T01:26:04.488Z,0
2018-07-09T01:27:05.880Z,0
2018-07-09T01:28:07.277Z,0
2018-07-09T01:29:08.689Z,0
2018-07-09T01:30:10.082Z,0
2018-07-09T01:31:11.487Z,0
2018-07-09T01:32:12.884Z,0
2018-07-09T01:33:14.277Z,0
2018-07-09T01:34:15.677Z,0
2018-07-09T01:35:17.075Z,0
2018-07-09T01:36:18.467Z,0
2018-07-09T01:37:19.859Z,0
2018-07-09T01:38:21.251Z,0
2018-07-09T01:39:22.646Z,0
2018-07-09T01:40:24.040Z,0
2018-07-09T01:41:25.431Z,0
2018-07-09T01:42:26.829Z,0
2018-07-09T01:43:28.225Z,0
2018-07-09T01:44:29.618Z,0
2018-07-09T01:45:31.013Z,0
2018-07-09T01:46:32.406Z,0
2018-07-09T01:47:33.804Z,0
2018-07-09T01:48:35.198Z,0
2018-07-09T01:49:36.596Z,0
2018-07-09T01:50:37.986Z,0
2018-07-09T01:51:39.435Z,0
2018-07-09T01:52:40.828Z,0
2018-07-09T01:53:42.222Z,0
2018-07-09T01:54:43.613Z,0
2018-07-09T01:55:45.012Z,0
2018-07-09T01:56:46.404Z,0
2018-07-09T01:57:47.796Z,0
2018-07-09T01:58:49.186Z,0
2018-07-09T01:59:50.577Z,0
2018-07-09T02:00:51.968Z,0
2018-07-09T02:01:53.368Z,0
2018-07-09T02:02:54.763Z,0
2018-07-09T02:03:56.158Z,0
2018-07-09T02:04:57.545Z,0
2018-07-09T02:05:58.938Z,0
2018-07-09T02:07:00.332Z,0
2018-07-09T02:08:01.726Z,0
2018-07-09T02:09:03.114Z,0
2018-07-09T02:10:04.514Z,0
2018-07-09T02:11:05.908Z,0
2018-07-09T02:12:07.302Z,0
2018-07-09T02:13:08.699Z,0
2018-07-09T02:14:10.114Z,0
2018-07-09T02:15:11.512Z,0
2018-07-09T02:16:12.905Z,0
2018-07-09T02:17:14.299Z,0
2018-07-09T02:18:15.698Z,0
2018-07-09T02:19:17.093Z,0
2018-07-09T02:20:18.484Z,0
2018-07-09T02:21:19.876Z,0
2018-07-09T02:22:21.273Z,0
2018-07-09T02:23:22.663Z,0
2018-07-09T02:24:24.061Z,0
2018-07-09T02:25:25.450Z,0
2018-07-09T02:26:26.840Z,0
2018-07-09T02:27:28.255Z,0
2018-07-09T02:28:29.647Z,0
2018-07-09T02:29:31.043Z,0
2018-07-09T02:30:32.438Z,0
2018-07-09T02:31:33.834Z,0
2018-07-09T02:32:35.236Z,0
2018-07-09T02:33:36.624Z,0
2018-07-09T02:34:38.026Z,0
2018-07-09T02:35:39.442Z,0
2018-07-09T02:36:40.836Z,0
2018-07-09T02:37:42.246Z,0
2018-07-09T02:38:43.642Z,0
2018-07-09T02:39:45.032Z,0
2018-07-09T02:40:46.423Z,0
2018-07-09T02:41:47.813Z,0
2018-07-09T02:42:49.202Z,0
2018-07-09T02:43:50.596Z,0
2018-07-09T02:44:51.986Z,0
2018-07-09T02:45:53.412Z,0
2018-07-09T02:46:54.790Z,0
2018-07-09T02:47:56.187Z,0
2018-07-09T02:48:57.607Z,0
2018-07-09T02:49:58.996Z,0
2018-07-09T02:51:00.390Z,0
2018-07-09T02:52:01.783Z,0
2018-07-09T02:53:03.213Z,0
2018-07-09T02:54:04.611Z,0
2018-07-09T02:55:06.004Z,0
2018-07-09T02:56:07.404Z,0
2018-07-09T02:57:08.797Z,0
2018-07-09T02:58:10.186Z,4
2018-07-09T02:59:11.578Z,4
2018-07-09T03:00:12.974Z,0
2018-07-09T03:01:14.528Z,0
2018-07-09T03:02:15.758Z,0
2018-07-09T03:03:17.151Z,4
2018-07-09T03:04:18.548Z,4
2018-07-09T03:05:19.937Z,0
2018-07-09T03:06:21.331Z,4
2018-07-09T03:07:22.723Z,4
2018-07-09T03:08:24.118Z,4
2018-07-09T03:09:25.507Z,8
2018-07-09T03:10:26.897Z,4
2018-07-09T03:11:28.286Z,8
2018-07-09T03:12:29.683Z,8
2018-07-09T03:13:31.077Z,8
2018-07-09T03:14:32.469Z,8
2018-07-09T03:15:33.861Z,12
2018-07-09T03:16:35.317Z,12
2018-07-09T03:17:36.757Z,12
2018-07-09T03:18:38.155Z,16
2018-07-09T03:19:39.543Z,20
2018-07-09T03:20:40.936Z,20
2018-07-09T03:21:42.354Z,24
2018-07-09T03:22:43.725Z,24
2018-07-09T03:23:45.113Z,28
2018-07-09T03:24:46.506Z,32
2018-07-09T03:25:47.898Z,32
2018-07-09T03:26:49.292Z,36
2018-07-09T03:27:50.708Z,40
2018-07-09T03:28:52.101Z,44
2018-07-09T03:29:53.498Z,48
2018-07-09T03:30:54.890Z,52
2018-07-09T03:31:56.295Z,56
2018-07-09T03:32:57.678Z,64
2018-07-09T03:33:59.070Z,68
2018-07-09T03:35:00.461Z,72
2018-07-09T03:36:01.855Z,80
2018-07-09T03:37:03.249Z,84
2018-07-09T03:38:04.648Z,92
2018-07-09T03:39:06.038Z,96
2018-07-09T03:40:07.434Z,108
2018-07-09T03:41:08.821Z,112
2018-07-09T03:42:10.215Z,116
2018-07-09T03:43:11.615Z,128
2018-07-09T03:44:13.011Z,136
2018-07-09T03:45:14.407Z,140
2018-07-09T03:46:15.801Z,148
2018-07-09T03:47:17.207Z,156
2018-07-09T03:48:18.593Z,164
2018-07-09T03:49:19.985Z,172
2018-07-09T03:50:21.429Z,180
2018-07-09T03:51:22.820Z,188
2018-07-09T03:52:24.212Z,196
2018-07-09T03:53:25.611Z,204
2018-07-09T03:54:27.002Z,212
2018-07-09T03:55:28.396Z,220
2018-07-09T03:56:29.802Z,228
2018-07-09T03:57:31.187Z,236
2018-07-09T03:58:32.588Z,244
2018-07-09T03:59:33.984Z,252
2018-07-09T04:00:35.389Z,260
2018-07-09T04:01:36.785Z,268
2018-07-09T04:02:38.178Z,276
2018-07-09T04:03:39.576Z,284
2018-07-09T04:04:40.973Z,288
2018-07-09T04:05:42.379Z,296
2018-07-09T04:06:43.770Z,304
2018-07-09T04:07:45.164Z,312
2018-07-09T04:08:46.560Z,320
2018-07-09T04:09:47.956Z,328
2018-07-09T04:10:49.377Z,336
2018-07-09T04:11:50.774Z,344
2018-07-09T04:12:52.173Z,352
2018-07-09T04:13:53.565Z,360
2018-07-09T04:14:54.959Z,364
2018-07-09T04:15:56.358Z,372
2018-07-09T04:16:57.756Z,380
2018-07-09T04:17:59.150Z,392
2018-07-09T04:19:00.549Z,400
2018-07-09T04:20:01.945Z,408
2018-07-09T04:21:03.339Z,416
2018-07-09T04:22:04.732Z,424
2018-07-09T04:23:06.133Z,428
2018-07-09T04:24:07.526Z,440
2018-07-09T04:25:08.924Z,444
2018-07-09T04:26:10.333Z,452
2018-07-09T04:27:11.722Z,460
2018-07-09T04:28:13.120Z,464
2018-07-09T04:29:14.514Z,472
2018-07-09T04:30:15.926Z,476
2018-07-09T04:31:17.329Z,484
2018-07-09T04:32:18.728Z,492
2018-07-09T04:33:20.153Z,500
2018-07-09T04:34:21.549Z,504
2018-07-09T04:35:22.947Z,512
2018-07-09T04:36:24.342Z,520
2018-07-09T04:37:25.737Z,524
2018-07-09T04:38:27.138Z,532
2018-07-09T04:39:28.539Z,536
2018-07-09T04:40:29.934Z,544
2018-07-09T04:41:31.334Z,548
2018-07-09T04:42:32.751Z,552
2018-07-09T04:43:34.191Z,560
2018-07-09T04:44:35.590Z,568
2018-07-09T04:45:36.983Z,572
2018-07-09T04:46:38.398Z,580
2018-07-09T04:47:39.791Z,584
2018-07-09T04:48:41.191Z,592
2018-07-09T04:49:42.583Z,600
2018-07-09T04:50:43.981Z,604
2018-07-09T04:51:45.378Z,612
2018-07-09T04:52:46.773Z,612
2018-07-09T04:53:48.172Z,612
2018-07-09T04:54:49.566Z,620
2018-07-09T04:55:50.965Z,620
2018-07-09T04:56:52.357Z,624
2018-07-09T04:57:53.752Z,632
2018-07-09T04:58:55.144Z,632
2018-07-09T04:59:56.540Z,636
2018-07-09T05:00:57.932Z,636
2018-07-09T05:01:59.332Z,636
2018-07-09T05:03:00.736Z,640
2018-07-09T05:04:02.136Z,644
2018-07-09T05:05:03.533Z,648
2018-07-09T05:06:04.930Z,652
2018-07-09T05:07:06.326Z,656
2018-07-09T05:08:07.723Z,664
2018-07-09T05:09:09.118Z,668
2018-07-09T05:10:10.514Z,672
2018-07-09T05:11:11.909Z,676
2018-07-09T05:12:13.303Z,680
2018-07-09T05:13:14.703Z,680
2018-07-09T05:14:16.110Z,684
2018-07-09T05:15:17.503Z,692
2018-07-09T05:16:19.384Z,692
2018-07-09T05:17:20.780Z,696
2018-07-09T05:18:22.183Z,696
2018-07-09T05:19:23.576Z,696
2018-07-09T05:20:24.969Z,704
2018-07-09T05:21:26.369Z,708
2018-07-09T05:22:27.771Z,712
2018-07-09T05:23:29.166Z,716
2018-07-09T05:24:30.569Z,716
2018-07-09T05:25:32.027Z,724
2018-07-09T05:26:33.421Z,732
2018-07-09T05:27:34.815Z,736
2018-07-09T05:28:36.224Z,740
2018-07-09T05:29:37.618Z,744
2018-07-09T05:30:39.015Z,752
2018-07-09T05:31:40.414Z,760
2018-07-09T05:32:42.173Z,768
2018-07-09T05:33:43.567Z,768
2018-07-09T05:34:44.978Z,776
2018-07-09T05:35:46.370Z,780
2018-07-09T05:36:47.766Z,792
2018-07-09T05:37:49.187Z,796
2018-07-09T05:38:50.581Z,804
2018-07-09T05:39:51.995Z,804
2018-07-09T05:40:53.371Z,808
2018-07-09T05:41:54.762Z,812
2018-07-09T05:42:56.158Z,820
2018-07-09T05:43:57.553Z,824
2018-07-09T05:44:58.950Z,832
2018-07-09T05:46:00.349Z,836
2018-07-09T05:47:01.898Z,836
2018-07-09T05:48:03.170Z,840
2018-07-09T05:49:04.573Z,852
2018-07-09T05:50:05.965Z,864
2018-07-09T05:51:07.409Z,876
2018-07-09T05:52:08.821Z,884
2018-07-09T05:53:10.227Z,892
2018-07-09T05:54:11.621Z,908
2018-07-09T05:55:13.016Z,920
2018-07-09T05:56:14.713Z,936
2018-07-09T05:57:16.076Z,948
2018-07-09T05:58:17.470Z,960
2018-07-09T05:59:18.875Z,968
2018-07-09T06:00:20.272Z,972
2018-07-09T06:01:21.671Z,972
2018-07-09T06:02:23.067Z,984
2018-07-09T06:03:24.464Z,984
2018-07-09T06:04:25.857Z,988
2018-07-09T06:05:27.271Z,992
2018-07-09T06:06:28.715Z,1000
2018-07-09T06:07:30.118Z,1004
2018-07-09T06:08:31.523Z,1012
2018-07-09T06:09:32.922Z,1016
2018-07-09T06:10:34.332Z,1020
2018-07-09T06:11:35.838Z,1032
2018-07-09T06:12:37.127Z,1040
2018-07-09T06:13:38.586Z,1048
2018-07-09T06:14:39.929Z,1056
2018-07-09T06:15:41.332Z,1056
2018-07-09T06:16:42.728Z,1072
2018-07-09T06:17:44.123Z,1076
2018-07-09T06:18:45.522Z,1088
2018-07-09T06:19:46.999Z,1092
2018-07-09T06:20:48.333Z,1104
2018-07-09T06:21:49.727Z,1116
2018-07-09T06:22:51.129Z,1124
2018-07-09T06:23:52.523Z,1136
2018-07-09T06:24:53.923Z,1148
2018-07-09T06:25:55.317Z,1156
2018-07-09T06:26:56.714Z,1160
2018-07-09T06:27:58.113Z,1168
2018-07-09T06:28:59.510Z,1180
2018-07-09T06:30:00.909Z,1188
2018-07-09T06:31:02.314Z,1204
2018-07-09T06:32:03.712Z,1212
2018-07-09T06:33:05.114Z,1228
2018-07-09T06:34:06.512Z,1240
2018-07-09T06:35:07.910Z,1252
2018-07-09T06:36:09.311Z,1272
2018-07-09T06:37:10.707Z,1284
2018-07-09T06:38:12.104Z,1300
2018-07-09T06:39:13.502Z,1308
2018-07-09T06:40:14.916Z,1320
2018-07-09T06:41:16.314Z,1344
2018-07-09T06:42:17.709Z,1352
2018-07-09T06:43:19.109Z,1364
2018-07-09T06:44:20.504Z,1392
2018-07-09T06:45:21.899Z,1408
2018-07-09T06:46:23.300Z,1420
2018-07-09T06:47:24.694Z,1452
2018-07-09T06:48:26.096Z,1460
2018-07-09T06:49:27.502Z,1484
2018-07-09T06:50:28.906Z,1484
2018-07-09T06:51:30.299Z,1520
2018-07-09T06:52:31.696Z,1528
2018-07-09T06:53:33.094Z,1528
2018-07-09T06:54:34.495Z,1560
2018-07-09T06:55:35.893Z,1560
2018-07-09T06:56:37.294Z,1584
2018-07-09T06:57:38.695Z,1616
2018-07-09T06:58:40.100Z,1648
2018-07-09T06:59:41.495Z,1684
2018-07-09T07:00:42.909Z,1696
2018-07-09T07:01:44.311Z,1724
2018-07-09T07:02:45.708Z,1724
2018-07-09T07:03:47.109Z,1752
2018-07-09T07:04:48.518Z,1796
2018-07-09T07:05:49.912Z,1800
2018-07-09T07:06:51.310Z,1812
2018-07-09T07:07:52.709Z,1824
2018-07-09T07:08:54.221Z,1848
2018-07-09T07:09:55.502Z,1860
2018-07-09T07:10:56.901Z,1888
2018-07-09T07:11:58.301Z,1932
2018-07-09T07:12:59.695Z,1956
2018-07-09T07:14:01.097Z,1984
2018-07-09T07:15:02.497Z,2016
2018-07-09T07:16:03.896Z,2084
2018-07-09T07:17:05.292Z,2124
2018-07-09T07:18:06.722Z,2128
2018-07-09T07:19:08.127Z,2136
2018-07-09T07:20:09.530Z,2168
2018-07-09T07:21:10.928Z,2168
2018-07-09T07:22:12.326Z,2192
2018-07-09T07:23:13.724Z,2204
2018-07-09T07:24:15.135Z,2244
2018-07-09T07:25:16.537Z,2256
2018-07-09T07:26:17.939Z,2292
2018-07-09T07:27:19.333Z,2360
2018-07-09T07:28:20.736Z,2388
2018-07-09T07:29:22.133Z,2420
2018-07-09T07:30:23.537Z,2452
2018-07-09T07:31:25.035Z,2500
2018-07-09T07:32:26.419Z,2528
2018-07-09T07:33:27.819Z,2588
2018-07-09T07:34:29.217Z,2640
2018-07-09T07:35:30.613Z,2692
2018-07-09T07:36:32.015Z,2696
2018-07-09T07:37:33.417Z,2732
2018-07-09T07:38:34.822Z,2772
2018-07-09T07:39:36.784Z,2756
2018-07-09T07:40:38.185Z,2800
2018-07-09T07:41:39.583Z,2812
2018-07-09T07:42:40.981Z,2828
2018-07-09T07:43:42.387Z,2836
2018-07-09T07:44:43.805Z,2884
2018-07-09T07:45:45.188Z,2952
2018-07-09T07:46:46.586Z,2952
2018-07-09T07:47:47.987Z,3004
2018-07-09T07:48:49.395Z,3024
2018-07-09T07:49:50.790Z,3016
2018-07-09T07:50:52.190Z,2952
2018-07-09T07:51:53.586Z,2984
2018-07-09T07:52:54.988Z,2988
2018-07-09T07:53:56.390Z,2988
2018-07-09T07:54:57.792Z,3024
2018-07-09T07:55:59.231Z,3012
2018-07-09T07:57:01.523Z,3048
2018-07-09T07:58:02.953Z,3068
2018-07-09T07:59:04.353Z,3088
2018-07-09T08:00:05.751Z,3068
2018-07-09T08:01:07.155Z,3084
2018-07-09T08:02:08.560Z,3084
2018-07-09T08:03:09.963Z,3012
2018-07-09T08:04:11.358Z,2932
2018-07-09T08:05:12.761Z,3000
2018-07-09T08:06:14.175Z,2940
2018-07-09T08:07:15.580Z,2848
2018-07-09T08:08:16.981Z,2920
2018-07-09T08:09:18.429Z,2996
2018-07-09T08:10:19.783Z,3092
2018-07-09T08:11:21.183Z,3008
2018-07-09T08:13:29.535Z,3044
2018-07-09T08:14:25.627Z,2876
2018-07-09T08:15:27.042Z,3172
2018-07-09T08:16:28.436Z,3176
2018-07-09T08:17:29.830Z,3208
2018-07-09T08:18:31.232Z,3216
2018-07-09T08:19:32.635Z,3216
2018-07-09T08:20:34.033Z,3264
2018-07-09T08:21:35.435Z,3268
2018-07-09T08:22:36.843Z,3320
2018-07-09T08:23:38.246Z,3336
2018-07-09T08:24:39.651Z,3352
2018-07-09T08:25:41.110Z,3360
2018-07-09T08:26:42.460Z,3384
2018-07-09T08:27:43.845Z,3376
2018-07-09T08:28:45.244Z,3360
2018-07-09T08:29:46.647Z,3432
2018-07-09T08:30:48.048Z,3388
2018-07-09T08:31:49.447Z,3636
2018-07-09T08:32:50.848Z,3840
2018-07-09T08:33:52.258Z,3920
2018-07-09T08:34:53.653Z,4148
2018-07-09T08:35:55.058Z,4336
2018-07-09T08:36:56.456Z,4408
2018-07-09T08:37:57.869Z,3776
2018-07-09T08:38:59.256Z,4132
2018-07-09T08:40:00.656Z,4080
2018-07-09T08:41:02.061Z,3136
2018-07-09T08:42:03.463Z,4300
2018-07-09T08:43:04.870Z,4228
2018-07-09T08:44:06.270Z,4660
2018-07-09T08:45:07.672Z,4596
2018-07-09T08:46:09.071Z,4688
2018-07-09T08:47:10.466Z,4688
2018-07-09T08:48:11.868Z,4532
2018-07-09T08:49:13.272Z,4160
2018-07-09T08:50:14.703Z,3208
2018-07-09T08:51:16.107Z,4228
2018-07-09T08:52:17.512Z,3112
2018-07-09T08:53:18.909Z,4536
2018-07-09T08:54:20.378Z,5120
2018-07-09T08:55:21.833Z,5452
2018-07-09T08:56:23.197Z,5192
2018-07-09T08:57:24.599Z,4604
2018-07-09T08:58:26.001Z,4812
2018-07-09T08:59:27.407Z,4960
2018-07-09T09:00:28.808Z,5216
2018-07-09T09:01:30.210Z,5228
2018-07-09T09:02:31.613Z,5432
2018-07-09T09:03:33.016Z,5496
2018-07-09T09:04:34.419Z,5468
2018-07-09T09:05:35.822Z,4692
2018-07-09T09:06:37.227Z,4052
2018-07-09T09:07:38.623Z,4172
2018-07-09T09:08:40.024Z,4676
2018-07-09T09:09:41.425Z,4736
2018-07-09T09:10:42.825Z,4836
2018-07-09T09:11:44.231Z,5064
2018-07-09T09:12:45.632Z,5108
2018-07-09T09:13:47.032Z,5084
2018-07-09T09:14:48.431Z,5084
2018-07-09T09:15:49.838Z,4772
2018-07-09T09:16:51.234Z,4884
2018-07-09T09:17:52.635Z,5056
2018-07-09T09:18:54.039Z,5092
2018-07-09T09:19:55.443Z,5172
2018-07-09T09:20:56.845Z,5136
2018-07-09T09:21:58.245Z,5032
2018-07-09T09:22:59.655Z,4856
2018-07-09T09:24:01.039Z,4812
2018-07-09T09:25:02.443Z,4480
2018-07-09T09:26:03.848Z,4888
2018-07-09T09:27:05.245Z,5200
2018-07-09T09:28:06.659Z,5456
2018-07-09T09:29:08.055Z,5724
2018-07-09T09:30:09.457Z,5692
2018-07-09T09:31:10.876Z,5560
2018-07-09T09:32:12.261Z,5544
2018-07-09T09:33:13.664Z,2476
2018-07-09T09:34:15.069Z,6372
2018-07-09T09:35:16.482Z,6400
2018-07-09T09:36:17.880Z,5792
2018-07-09T09:37:19.370Z,5380
2018-07-09T09:38:20.718Z,6800
2018-07-09T09:39:22.123Z,5632
2018-07-09T09:40:23.526Z,6476
2018-07-09T09:41:24.931Z,7728
2018-07-09T09:42:26.333Z,7256
2018-07-09T09:43:27.733Z,7488
2018-07-09T09:44:29.134Z,8328
2018-07-09T09:45:30.544Z,7720
2018-07-09T09:46:31.947Z,7628
2018-07-09T09:47:33.352Z,9444
2018-07-09T09:48:34.754Z,9300
2018-07-09T09:49:36.156Z,9008
2018-07-09T09:50:37.561Z,8708
2018-07-09T09:51:38.972Z,8328
2018-07-09T09:52:40.368Z,7964
2018-07-09T09:53:41.769Z,8184
2018-07-09T09:54:43.178Z,7940
2018-07-09T09:55:44.581Z,8512
2018-07-09T09:56:46.056Z,8168
2018-07-09T09:57:47.449Z,7996
2018-07-09T09:58:48.852Z,9220
2018-07-09T09:59:50.252Z,7904
2018-07-09T10:00:51.653Z,9296
2018-07-09T10:01:53.133Z,9136
2018-07-09T10:02:54.842Z,9912
2018-07-09T10:03:56.255Z,10836
2018-07-09T10:04:57.659Z,10904
2018-07-09T10:05:59.073Z,12224
2018-07-09T10:07:00.486Z,11824
2018-07-09T10:08:01.907Z,11472
2018-07-09T10:09:03.404Z,11000
2018-07-09T10:10:04.833Z,10060
2018-07-09T10:11:06.241Z,9748
2018-07-09T10:12:07.642Z,9444
2018-07-09T10:13:09.064Z,8716
2018-07-09T10:14:10.464Z,8872
2018-07-09T10:15:11.875Z,8816
2018-07-09T10:16:13.285Z,8696
2018-07-09T10:17:14.696Z,2912
2018-07-09T10:18:16.095Z,6612
2018-07-09T10:19:17.602Z,2528
2018-07-09T10:20:19.038Z,2664
2018-07-09T10:21:20.438Z,9772
2018-07-09T10:22:21.832Z,9440
2018-07-09T10:23:23.403Z,9260
2018-07-09T10:24:24.648Z,10644
2018-07-09T10:25:26.070Z,10100
2018-07-09T10:26:27.475Z,10868
2018-07-09T10:27:28.978Z,12492
2018-07-09T10:28:30.389Z,10992
2018-07-09T10:29:31.821Z,12224
2018-07-09T10:30:33.250Z,12488
2018-07-09T10:31:34.641Z,11684
2018-07-09T10:32:36.056Z,8684
2018-07-09T10:33:37.463Z,12456
2018-07-09T10:34:38.877Z,12780
2018-07-09T10:35:40.336Z,12504
2018-07-09T10:36:41.749Z,12768
2018-07-09T10:37:43.192Z,12532
2018-07-09T10:38:44.603Z,12380
2018-07-09T10:39:46.014Z,12164
2018-07-09T10:40:47.413Z,12476
2018-07-09T10:41:48.815Z,12416
2018-07-09T10:42:50.227Z,12112
2018-07-09T10:43:51.700Z,12420
2018-07-09T10:44:53.218Z,12760
2018-07-09T10:45:54.626Z,12664
2018-07-09T10:46:56.033Z,12592
2018-07-09T10:47:57.461Z,5696
2018-07-09T10:48:58.861Z,6552
2018-07-09T10:50:00.262Z,9940
2018-07-09T10:51:01.720Z,9440
2018-07-09T10:52:03.119Z,8804
2018-07-09T10:53:04.998Z,15168
2018-07-09T10:54:06.404Z,8172
2018-07-09T10:55:07.854Z,6580
2018-07-09T10:56:09.203Z,5544
2018-07-09T10:57:10.610Z,5352
2018-07-09T10:58:12.009Z,5520
2018-07-09T10:59:13.414Z,6896
2018-07-09T11:00:14.906Z,5648
2018-07-09T11:01:16.349Z,5356
2018-07-09T11:02:17.750Z,5288
2018-07-09T11:03:19.173Z,5940
2018-07-09T11:04:20.557Z,6248
2018-07-09T11:05:21.963Z,15112
2018-07-09T11:06:23.365Z,6964
2018-07-09T11:07:24.769Z,8144
2018-07-09T11:08:26.179Z,9092
2018-07-09T11:09:27.584Z,7196
2018-07-09T11:10:28.984Z,7876
2018-07-09T11:11:30.397Z,14872
2018-07-09T11:12:31.873Z,22624
2018-07-09T11:13:33.280Z,16800
2018-07-09T11:14:34.814Z,14772
2018-07-09T11:15:36.213Z,15436
2018-07-09T11:16:37.619Z,11568
2018-07-09T11:17:39.088Z,14856
2018-07-09T11:18:40.579Z,12400
2018-07-09T11:19:41.985Z,11428
2018-07-09T11:20:43.399Z,8656
2018-07-09T11:21:44.817Z,8132
2018-07-09T11:22:46.232Z,6716
2018-07-09T11:23:47.646Z,5660
2018-07-09T11:24:49.047Z,5960
2018-07-09T11:25:50.455Z,8308
2018-07-09T11:26:51.858Z,5852
2018-07-09T11:27:53.263Z,7264
2018-07-09T11:28:54.695Z,7792
2018-07-09T11:29:56.115Z,9216
2018-07-09T11:30:57.518Z,10680
2018-07-09T11:31:58.923Z,10536
2018-07-09T11:33:00.329Z,12304
2018-07-09T11:34:01.741Z,6208
2018-07-09T11:35:03.148Z,5868
2018-07-09T11:36:04.591Z,6264
2018-07-09T11:37:05.957Z,6836
2018-07-09T11:38:07.378Z,5856
2018-07-09T11:39:08.782Z,5456
2018-07-09T11:40:10.188Z,5392
2018-07-09T11:41:11.614Z,7172
2018-07-09T11:42:13.139Z,10936
2018-07-09T11:43:14.540Z,12892
2018-07-09T11:44:15.973Z,13900
2018-07-09T11:45:17.381Z,19328
2018-07-09T11:46:18.780Z,17440
2018-07-09T11:47:20.250Z,22592
2018-07-09T11:48:21.653Z,22208
2018-07-09T11:49:23.083Z,7836
2018-07-09T11:50:24.488Z,6908
2018-07-09T11:51:25.889Z,10324
2018-07-09T11:52:27.301Z,6220
2018-07-09T11:53:28.702Z,23136
2018-07-09T11:54:30.103Z,18368
2018-07-09T11:55:31.514Z,24672
2018-07-09T11:56:32.919Z,11504
2018-07-09T11:57:34.332Z,17216
2018-07-09T11:58:35.790Z,11688
2018-07-09T11:59:37.149Z,13320
2018-07-09T12:00:38.551Z,17920
2018-07-09T12:01:39.957Z,25408
2018-07-09T12:02:41.363Z,26560
2018-07-09T12:03:42.766Z,6764
2018-07-09T12:04:44.186Z,6576
2018-07-09T12:05:45.595Z,6704
2018-07-09T12:06:47.004Z,27200
2018-07-09T12:07:48.408Z,10460
2018-07-09T12:08:49.827Z,26784
2018-07-09T12:09:51.232Z,7328
2018-07-09T12:10:52.637Z,7032
2018-07-09T12:11:54.045Z,6876
2018-07-09T12:12:55.465Z,6048
2018-07-09T12:13:56.868Z,5544
2018-07-09T12:14:58.277Z,4872
2018-07-09T12:15:59.680Z,5288
2018-07-09T12:17:01.100Z,20960
2018-07-09T12:18:02.501Z,25920
2018-07-09T12:19:03.908Z,25920
2018-07-09T12:20:05.325Z,14272
2018-07-09T12:21:06.730Z,21600
2018-07-09T12:22:08.131Z,19456
2018-07-09T12:23:09.542Z,24864
2018-07-09T12:24:11.030Z,8008
2018-07-09T12:25:12.472Z,10076
2018-07-09T12:26:13.879Z,27008
2018-07-09T12:27:15.286Z,22720
2018-07-09T12:28:16.709Z,21344
2018-07-09T12:29:18.113Z,8668
2018-07-09T12:30:19.521Z,22368
2018-07-09T12:31:20.925Z,7804
2018-07-09T12:32:22.331Z,22848
2018-07-09T12:33:23.752Z,7596
2018-07-09T12:34:25.159Z,24128
2018-07-09T12:35:26.561Z,7132
2018-07-09T12:36:28.042Z,6360
2018-07-09T12:37:29.369Z,18112
2018-07-09T12:38:30.776Z,22560
2018-07-09T12:39:32.209Z,22016
2018-07-09T12:40:33.617Z,5016
2018-07-09T12:41:35.032Z,4572
2018-07-09T12:42:36.435Z,4336
2018-07-09T12:43:37.842Z,4296
2018-07-09T12:44:39.258Z,4360
2018-07-09T12:45:40.661Z,4904
2018-07-09T12:46:42.075Z,6048
2018-07-09T12:47:44.115Z,10012
2018-07-09T12:48:45.521Z,9812
2018-07-09T12:49:46.970Z,16864
2018-07-09T12:50:48.329Z,6112
2018-07-09T12:51:49.732Z,5864
2018-07-09T12:52:51.136Z,5808
2018-07-09T12:53:52.542Z,6620
2018-07-09T12:54:53.951Z,12168
2018-07-09T12:55:55.368Z,19712
2018-07-09T12:56:56.763Z,15776
2018-07-09T12:57:58.167Z,10216
2018-07-09T12:58:59.573Z,9940
2018-07-09T13:00:01.006Z,15872
2018-07-09T13:01:02.413Z,9804
2018-07-09T13:02:03.818Z,16896
2018-07-09T13:03:05.228Z,15904
2018-07-09T13:04:06.632Z,12976
2018-07-09T13:05:08.124Z,7592
2018-07-09T13:06:09.541Z,7568
2018-07-09T13:07:10.948Z,14416
2018-07-09T13:08:12.350Z,7096
2018-07-09T13:09:13.761Z,7428
2018-07-09T13:10:15.276Z,8176
2018-07-09T13:11:16.686Z,8044
2018-07-09T13:12:18.094Z,8928
2018-07-09T13:13:19.497Z,9912
2018-07-09T13:14:20.913Z,11364
2018-07-09T13:15:22.307Z,11832
2018-07-09T13:16:23.717Z,11924
2018-07-09T13:17:25.124Z,11316
2018-07-09T13:18:26.527Z,11520
2018-07-09T13:19:27.931Z,7544
2018-07-09T13:20:29.334Z,6136
2018-07-09T13:21:30.739Z,5684
2018-07-09T13:22:32.558Z,5860
2018-07-09T13:23:33.959Z,9940
2018-07-09T13:24:35.367Z,4564
2018-07-09T13:25:36.772Z,3864
2018-07-09T13:26:38.185Z,3568
2018-07-09T13:27:39.584Z,3436
2018-07-09T13:28:40.975Z,3448
2018-07-09T13:29:42.399Z,3548
2018-07-09T13:30:43.800Z,4080
2018-07-09T13:31:45.214Z,4808
2018-07-09T13:32:46.619Z,5716
2018-07-09T13:33:48.023Z,6628
2018-07-09T13:34:49.429Z,16320
2018-07-09T13:35:50.833Z,12508
2018-07-09T13:36:52.237Z,14980
2018-07-09T13:37:53.686Z,15680
2018-07-09T13:38:55.060Z,14644
2018-07-09T13:39:56.461Z,6656
2018-07-09T13:40:57.864Z,6568
2018-07-09T13:41:59.266Z,7448
2018-07-09T13:43:00.675Z,12908
2018-07-09T13:44:02.084Z,9892
2018-07-09T13:45:03.491Z,7628
2018-07-09T13:46:04.896Z,7380
2018-07-09T13:47:06.316Z,9708
2018-07-09T13:48:07.726Z,9644
2018-07-09T13:49:09.202Z,14268
2018-07-09T13:50:10.535Z,12004
2018-07-09T13:51:11.939Z,9364
2018-07-09T13:52:13.357Z,12044
2018-07-09T13:53:14.766Z,14868
2018-07-09T13:54:16.173Z,13792
2018-07-09T13:55:17.578Z,12868
2018-07-09T13:56:18.976Z,9468
2018-07-09T13:57:20.386Z,8764
2018-07-09T13:58:21.788Z,6180
2018-07-09T13:59:23.194Z,6900
2018-07-09T14:00:24.607Z,6188